Time;durP1;ratioP1;P1;durP2;ratioP2;P2;SDS_P1;SDS_P2;PMS_P1;PMS_P2;Temp;Humidity;BMP_temperature;BMP_pressure;BME280_temperature;BME280_humidity;BME280_pressure;Samples;Min_cycle;Max_cycle;Signal;HPM_P1;HPM_P2
2022/02/20 00:01:23;;;;;;;3.47;2.40;;;14.40;52.20;;;;;;4981409;28;20446;-81
2022/02/20 00:03:51;;;;;;;3.20;2.30;;;14.30;52.80;;;;;;4977390;28;20458;-79
2022/02/20 00:06:19;;;;;;;2.80;2.17;;;14.40;52.80;;;;;;4978216;28;20532;-80
2022/02/20 00:08:49;;;;;;;2.10;1.90;;;14.30;52.20;;;;;;4978555;28;20838;-81
2022/02/20 00:11:16;;;;;;;2.37;2.20;;;14.40;52.30;;;;;;4978786;28;20461;-81
2022/02/20 00:13:44;;;;;;;2.40;2.20;;;14.40;52.30;;;;;;4979464;28;20438;-80
2022/02/20 00:16:13;;;;;;;2.50;2.27;;;14.40;52.40;;;;;;4979554;28;20458;-81
2022/02/20 00:18:40;;;;;;;3.53;2.60;;;14.40;52.20;;;;;;4980244;28;20481;-80
2022/02/20 00:21:08;;;;;;;2.97;2.23;;;14.50;52.50;;;;;;4984662;28;20469;-79
2022/02/20 00:23:36;;;;;;;3.57;2.23;;;14.40;52.30;;;;;;4986256;28;20470;-81
2022/02/20 00:26:05;;;;;;;2.77;2.57;;;14.40;52.30;;;;;;5003571;28;20481;-81
2022/02/20 00:28:33;;;;;;;3.17;2.47;;;14.40;52.40;;;;;;4997280;28;20445;-81
2022/02/20 00:31:01;;;;;;;6.83;2.30;;;14.40;52.50;;;;;;4998116;28;20495;-81
2022/02/20 00:33:29;;;;;;;3.90;2.93;;;14.40;52.50;;;;;;4999016;28;20442;-82
2022/02/20 00:35:57;;;;;;;3.63;2.10;;;14.50;52.60;;;;;;4998159;28;20485;-81
2022/02/20 00:38:25;;;;;;;3.47;2.33;;;14.40;52.60;;;;;;4998416;28;20437;-81
2022/02/20 00:40:53;;;;;;;2.10;1.87;;;14.40;52.70;;;;;;4998259;28;20445;-81
2022/02/20 00:43:22;;;;;;;2.63;2.27;;;14.50;53.50;;;;;;4997840;28;20460;-81
2022/02/20 00:45:50;;;;;;;2.67;2.47;;;14.50;52.80;;;;;;4997524;28;20461;-80
2022/02/20 00:48:20;;;;;;;2.13;1.90;;;14.50;52.90;;;;;;4998381;28;20434;-82
2022/02/20 00:50:48;;;;;;;3.17;2.20;;;14.50;52.80;;;;;;4998267;28;20433;-80
2022/02/20 00:53:17;;;;;;;3.03;2.57;;;14.50;52.90;;;;;;4998136;28;20448;-80
2022/02/20 00:55:45;;;;;;;2.03;1.87;;;14.60;53.00;;;;;;4998434;28;20462;-81
2022/02/20 00:58:13;;;;;;;6.57;2.67;;;14.60;52.90;;;;;;4996629;28;20492;-81
2022/02/20 01:00:42;;;;;;;4.30;2.50;;;14.70;52.80;;;;;;4998316;28;20504;-81
2022/02/20 01:03:10;;;;;;;5.63;2.93;;;14.60;52.80;;;;;;4997740;28;20477;-82
2022/02/20 01:05:38;;;;;;;2.70;2.50;;;14.60;53.00;;;;;;4998229;28;20481;-82
2022/02/20 01:08:08;;;;;;;2.63;2.40;;;14.60;53.10;;;;;;4997605;28;20465;-81
2022/02/20 01:10:36;;;;;;;2.50;2.23;;;14.60;53.00;;;;;;4998230;28;20434;-81
2022/02/20 01:13:04;;;;;;;3.63;2.30;;;14.60;53.10;;;;;;4997652;28;20472;-81
2022/02/20 01:15:32;;;;;;;2.70;2.37;;;14.60;53.20;;;;;;4996666;28;20511;-81
2022/02/20 01:18:01;;;;;;;6.23;2.33;;;14.60;53.10;;;;;;4997032;28;20464;-80
2022/02/20 01:20:29;;;;;;;2.30;2.10;;;14.60;53.20;;;;;;4997991;28;20465;-81
2022/02/20 01:22:57;;;;;;;2.17;2.07;;;14.60;53.20;;;;;;4996881;28;20437;-81
2022/02/20 01:25:25;;;;;;;3.50;2.70;;;14.60;53.20;;;;;;4997329;28;20524;-81
2022/02/20 01:27:53;;;;;;;4.30;2.53;;;14.60;53.40;;;;;;4996927;28;20512;-81
2022/02/20 01:30:20;;;;;;;2.97;2.70;;;14.60;53.30;;;;;;4996220;28;20452;-81
2022/02/20 01:32:48;;;;;;;2.50;2.33;;;14.60;53.40;;;;;;4996048;28;20484;-81
2022/02/20 01:35:17;;;;;;;2.87;2.50;;;14.60;53.50;;;;;;4997397;28;20449;-81
2022/02/20 01:37:45;;;;;;;3.57;2.40;;;14.60;53.40;;;;;;4998498;28;20436;-82
2022/02/20 01:40:13;;;;;;;2.87;2.67;;;14.60;53.50;;;;;;4997421;28;20508;-82
2022/02/20 01:42:41;;;;;;;2.67;2.47;;;14.60;53.60;;;;;;4996875;28;20484;-81
2022/02/20 01:45:12;;;;;;;2.50;2.20;;;14.60;53.50;;;;;;4996686;28;20513;-81
2022/02/20 01:47:40;;;;;;;3.27;2.63;;;14.60;53.70;;;;;;4996904;28;20531;-81
2022/02/20 01:50:08;;;;;;;2.83;2.40;;;14.60;53.70;;;;;;4991801;28;20476;-80
2022/02/20 01:52:38;;;;;;;3.90;2.57;;;14.60;53.80;;;;;;4997154;28;20454;-81
2022/02/20 01:55:08;;;;;;;3.00;2.40;;;14.60;53.80;;;;;;4996201;28;20450;-81
2022/02/20 01:57:36;;;;;;;5.23;2.30;;;14.60;53.80;;;;;;4996722;28;20457;-81
2022/02/20 02:00:06;;;;;;;2.87;2.67;;;14.60;53.80;;;;;;4996203;28;20473;-81
2022/02/20 02:02:34;;;;;;;2.70;2.50;;;14.60;53.90;;;;;;4996812;28;20441;-81
2022/02/20 02:05:02;;;;;;;4.10;2.57;;;14.60;53.90;;;;;;4994857;28;20553;-81
2022/02/20 02:07:30;;;;;;;3.10;2.57;;;14.60;53.80;;;;;;4996628;28;20496;-81
2022/02/20 02:09:59;;;;;;;2.47;2.27;;;14.60;53.80;;;;;;4995998;28;20492;-81
2022/02/20 02:12:27;;;;;;;2.43;2.33;;;14.60;53.80;;;;;;4996056;28;20438;-81
2022/02/20 02:14:55;;;;;;;4.13;2.33;;;14.70;53.90;;;;;;4996569;28;20445;-81
2022/02/20 02:17:24;;;;;;;4.33;2.37;;;14.60;53.80;;;;;;4996090;28;20528;-81
2022/02/20 02:19:52;;;;;;;2.63;2.40;;;14.60;53.90;;;;;;4996196;28;20472;-80
2022/02/20 02:22:21;;;;;;;3.17;2.80;;;14.60;54.10;;;;;;4994723;28;20457;-81
2022/02/20 02:24:49;;;;;;;3.30;2.53;;;14.60;53.90;;;;;;4995534;28;20477;-81
2022/02/20 02:27:17;;;;;;;2.80;2.60;;;14.60;53.90;;;;;;4995533;28;20492;-80
2022/02/20 02:29:46;;;;;;;2.93;2.63;;;14.60;54.00;;;;;;4994800;28;20457;-81
2022/02/20 02:32:14;;;;;;;3.00;2.30;;;14.60;54.10;;;;;;4994995;28;20438;-80
2022/02/20 02:34:43;;;;;;;2.67;2.47;;;14.60;54.10;;;;;;4995901;28;20517;-80
2022/02/20 02:37:11;;;;;;;2.90;2.70;;;14.60;54.10;;;;;;4995153;28;20473;-80
2022/02/20 02:39:40;;;;;;;3.60;2.20;;;14.60;54.20;;;;;;4995822;28;20449;-81
2022/02/20 02:42:09;;;;;;;4.27;2.97;;;14.60;54.30;;;;;;4995105;28;20480;-80
2022/02/20 02:44:37;;;;;;;3.10;2.80;;;14.60;54.30;;;;;;4995284;28;20960;-80
2022/02/20 02:47:05;;;;;;;3.20;2.90;;;14.50;54.30;;;;;;4993993;28;20445;-80
2022/02/20 02:49:33;;;;;;;2.73;2.53;;;14.50;54.30;;;;;;4993429;28;20441;-80
2022/02/20 02:52:01;;;;;;;3.43;2.67;;;14.60;54.40;;;;;;4994600;28;20445;-81
2022/02/20 02:54:28;;;;;;;3.40;2.43;;;14.60;54.20;;;;;;4995460;28;20528;-81
2022/02/20 02:56:58;;;;;;;2.90;2.70;;;14.50;54.40;;;;;;4995427;28;20956;-81
2022/02/20 02:59:25;;;;;;;2.83;2.53;;;14.50;54.40;;;;;;4994827;28;20461;-82
2022/02/20 03:01:56;;;;;;;2.93;2.73;;;14.50;54.20;;;;;;4995306;28;20504;-81
2022/02/20 03:04:24;;;;;;;2.67;2.47;;;14.50;54.30;;;;;;4993755;28;20525;-81
2022/02/20 03:06:51;;;;;;;2.87;2.60;;;14.50;54.50;;;;;;4995939;28;20473;-81
2022/02/20 03:09:19;;;;;;;3.10;2.53;;;14.40;54.30;;;;;;4994726;28;20875;-81
2022/02/20 03:11:47;;;;;;;2.97;2.27;;;14.40;54.40;;;;;;4995613;28;20472;-81
2022/02/20 03:14:16;;;;;;;2.40;2.30;;;14.50;54.60;;;;;;4994725;28;20491;-81
2022/02/20 03:16:44;;;;;;;2.70;2.50;;;14.40;54.40;;;;;;4995328;28;20441;-82
2022/02/20 03:19:12;;;;;;;2.53;2.43;;;14.40;54.60;;;;;;4993435;28;20449;-82
2022/02/20 03:21:40;;;;;;;3.30;2.43;;;14.40;54.60;;;;;;4996079;28;20491;-80
2022/02/20 03:24:08;;;;;;;4.27;2.60;;;14.40;54.50;;;;;;4975144;28;20477;-82
2022/02/20 03:26:36;;;;;;;2.37;2.20;;;14.40;54.60;;;;;;4975505;28;20474;-81
2022/02/20 03:29:03;;;;;;;2.73;2.20;;;14.40;54.60;;;;;;4975153;28;20957;-81
2022/02/20 03:31:34;;;;;;;2.57;2.37;;;14.40;54.60;;;;;;4975590;28;20815;-80
2022/02/20 03:34:02;;;;;;;2.60;2.40;;;14.40;54.60;;;;;;4976039;28;20513;-81
2022/02/20 03:36:31;;;;;;;2.80;2.50;;;14.40;54.60;;;;;;4980362;28;20556;-81
2022/02/20 03:38:59;;;;;;;3.27;2.53;;;14.40;54.50;;;;;;4991371;28;20456;-81
2022/02/20 03:41:27;;;;;;;2.47;2.27;;;14.30;54.60;;;;;;4989882;28;20495;-82
2022/02/20 03:43:55;;;;;;;2.60;2.40;;;14.30;54.70;;;;;;4994508;28;21035;-80
2022/02/20 03:46:22;;;;;;;2.83;2.53;;;14.30;54.80;;;;;;4993687;28;20477;-81
2022/02/20 03:48:52;;;;;;;2.83;2.63;;;14.30;54.80;;;;;;4994715;28;20492;-80
2022/02/20 03:51:19;;;;;;;2.50;2.33;;;14.30;54.80;;;;;;4994604;28;20511;-81
2022/02/20 03:53:47;;;;;;;2.20;2.00;;;14.30;54.80;;;;;;4993046;28;20488;-80
2022/02/20 03:56:15;;;;;;;2.30;2.20;;;14.20;54.60;;;;;;4998609;28;20453;-81
2022/02/20 03:58:43;;;;;;;2.37;2.20;;;14.20;54.80;;;;;;4998038;28;20480;-81
2022/02/20 04:01:11;;;;;;;2.13;2.03;;;14.20;54.80;;;;;;4998269;28;20481;-80
2022/02/20 04:03:41;;;;;;;2.20;1.93;;;14.20;54.90;;;;;;4997627;28;20480;-81
2022/02/20 04:06:10;;;;;;;2.37;2.27;;;14.20;54.90;;;;;;4997815;28;20532;-80
2022/02/20 04:08:38;;;;;;;2.30;2.10;;;14.20;55.00;;;;;;4996458;28;20488;-82
2022/02/20 04:11:06;;;;;;;2.87;2.30;;;14.20;55.00;;;;;;4998031;28;20425;-82
2022/02/20 04:13:34;;;;;;;2.60;2.23;;;14.20;54.90;;;;;;4997281;28;20477;-81
2022/02/20 04:16:01;;;;;;;2.43;2.23;;;14.20;54.90;;;;;;4997755;28;20493;-81
2022/02/20 04:18:29;;;;;;;3.07;2.80;;;14.20;55.00;;;;;;4997472;28;20425;-81
2022/02/20 04:20:57;;;;;;;2.43;2.23;;;14.10;54.90;;;;;;4998080;28;20464;-82
2022/02/20 04:23:30;;;;;;;2.43;2.23;;;14.10;55.00;;;;;;4997390;28;20505;-81
2022/02/20 04:26:01;;;;;;;3.03;2.70;;;14.10;55.10;;;;;;4995821;28;20901;-82
2022/02/20 04:28:30;;;;;;;2.67;2.47;;;14.10;55.00;;;;;;4997679;28;20468;-80
2022/02/20 04:30:58;;;;;;;2.47;2.27;;;14.10;55.10;;;;;;4997702;28;20476;-81
2022/02/20 04:33:26;;;;;;;2.57;2.37;;;14.00;55.10;;;;;;4998040;28;20468;-81
2022/02/20 04:35:53;;;;;;;2.40;2.20;;;14.00;55.20;;;;;;4997432;28;20999;-80
2022/02/20 04:38:21;;;;;;;2.40;2.30;;;14.00;55.20;;;;;;4997050;28;20564;-81
2022/02/20 04:40:51;;;;;;;2.80;2.60;;;14.00;55.20;;;;;;4997616;28;20452;-81
2022/02/20 04:43:19;;;;;;;2.47;2.27;;;14.00;55.30;;;;;;4996516;28;20457;-81
2022/02/20 04:45:47;;;;;;;2.33;2.20;;;14.00;55.40;;;;;;4997000;28;20479;-81
2022/02/20 04:48:15;;;;;;;2.07;1.97;;;13.90;55.30;;;;;;4997256;28;20484;-81
2022/02/20 04:50:43;;;;;;;2.60;2.13;;;13.90;55.30;;;;;;4996797;28;20803;-82
2022/02/20 04:53:11;;;;;;;2.30;2.10;;;13.90;55.30;;;;;;4996447;28;20481;-81
2022/02/20 04:55:38;;;;;;;2.33;2.23;;;13.90;55.30;;;;;;4997056;28;20464;-82
2022/02/20 04:58:08;;;;;;;2.97;2.67;;;13.90;55.30;;;;;;4997232;28;20988;-82
2022/02/20 05:00:36;;;;;;;2.30;2.10;;;13.90;55.40;;;;;;4996343;28;20445;-82
2022/02/20 05:03:04;;;;;;;2.43;2.13;;;13.90;55.40;;;;;;4996803;28;20492;-81
2022/02/20 05:05:32;;;;;;;2.60;2.40;;;13.90;55.30;;;;;;5006523;28;20539;-81
2022/02/20 05:08:00;;;;;;;2.43;2.30;;;13.80;55.30;;;;;;5010204;28;20481;-81
2022/02/20 05:10:28;;;;;;;2.53;2.33;;;13.80;55.40;;;;;;5007058;28;20445;-82
2022/02/20 05:12:56;;;;;;;2.40;2.23;;;13.80;55.40;;;;;;4999481;28;20503;-82
2022/02/20 05:15:25;;;;;;;2.57;2.37;;;13.80;55.30;;;;;;4999124;28;20462;-82
2022/02/20 05:17:53;;;;;;;2.33;2.23;;;13.80;55.30;;;;;;4997996;28;20508;-82
2022/02/20 05:20:21;;;;;;;3.33;2.27;;;13.90;56.00;;;;;;4998506;28;20437;-81
2022/02/20 05:22:49;;;;;;;2.40;2.20;;;13.80;55.30;;;;;;4998838;28;20519;-81
2022/02/20 05:25:17;;;;;;;2.80;2.33;;;13.80;55.30;;;;;;4999593;28;20457;-82
2022/02/20 05:27:45;;;;;;;2.60;2.40;;;13.80;55.40;;;;;;4997303;28;20472;-82
2022/02/20 05:30:16;;;;;;;2.17;2.03;;;13.80;55.30;;;;;;4996978;28;20437;-82
2022/02/20 05:32:45;;;;;;;2.80;2.60;;;13.80;55.30;;;;;;4996846;28;20437;-81
2022/02/20 05:35:13;;;;;;;2.27;2.17;;;13.80;55.40;;;;;;4995181;28;20523;-81
2022/02/20 05:37:42;;;;;;;2.30;2.20;;;13.80;55.30;;;;;;4996005;28;20465;-82
2022/02/20 05:40:11;;;;;;;2.53;2.33;;;13.80;55.30;;;;;;4997058;28;20448;-82
2022/02/20 05:42:39;;;;;;;3.37;2.57;;;13.80;55.30;;;;;;4995684;28;20438;-82
2022/02/20 05:45:08;;;;;;;2.47;2.27;;;13.80;55.20;;;;;;4996329;28;20473;-81
2022/02/20 05:47:36;;;;;;;2.30;2.20;;;13.80;55.30;;;;;;4995983;28;20473;-82
2022/02/20 05:50:06;;;;;;;2.60;2.40;;;13.80;55.20;;;;;;4996352;28;20433;-80
2022/02/20 05:52:34;;;;;;;3.30;2.50;;;13.80;55.20;;;;;;4993978;28;20536;-81
2022/02/20 05:55:02;;;;;;;2.77;2.50;;;13.80;55.20;;;;;;4996299;28;20474;-81
2022/02/20 05:57:31;;;;;;;2.27;2.10;;;13.80;55.10;;;;;;4995546;28;20452;-81
2022/02/20 05:59:58;;;;;;;2.40;2.30;;;13.80;55.10;;;;;;4995998;28;20483;-82
2022/02/20 06:02:26;;;;;;;2.70;2.50;;;13.70;55.10;;;;;;4995754;28;20445;-81
2022/02/20 06:04:54;;;;;;;2.80;2.60;;;13.80;55.10;;;;;;4995473;28;20520;-80
2022/02/20 06:07:24;;;;;;;2.80;2.37;;;13.70;55.00;;;;;;4993989;28;20483;-82
2022/02/20 06:09:52;;;;;;;4.90;2.40;;;13.70;55.00;;;;;;4995551;28;20450;-81
2022/02/20 06:12:20;;;;;;;2.50;2.40;;;13.70;55.10;;;;;;4995685;28;20471;-82
2022/02/20 06:14:48;;;;;;;2.90;2.60;;;13.70;55.00;;;;;;4995334;28;20485;-81
2022/02/20 06:17:16;;;;;;;2.33;2.20;;;13.70;55.00;;;;;;4995320;28;20661;-81
2022/02/20 06:19:44;;;;;;;2.83;2.10;;;13.70;55.00;;;;;;4995403;28;20453;-81
2022/02/20 06:22:12;;;;;;;2.27;2.17;;;13.70;55.00;;;;;;4995809;28;20476;-81
2022/02/20 06:24:41;;;;;;;2.80;2.60;;;13.70;54.90;;;;;;4994111;28;20556;-81
2022/02/20 06:27:09;;;;;;;2.20;2.10;;;13.70;54.80;;;;;;4988042;28;20509;-81
2022/02/20 06:29:37;;;;;;;2.10;2.00;;;13.70;54.80;;;;;;4994632;28;20430;-82
2022/02/20 06:32:05;;;;;;;2.83;2.63;;;13.70;54.70;;;;;;4995924;28;20433;-82
2022/02/20 06:34:33;;;;;;;2.40;2.30;;;13.70;54.70;;;;;;4994341;28;20516;-81
2022/02/20 06:37:01;;;;;;;2.10;2.00;;;13.60;54.70;;;;;;4998792;28;20444;-81
2022/02/20 06:39:31;;;;;;;2.57;2.37;;;13.60;54.60;;;;;;4999578;28;20437;-80
2022/02/20 06:42:00;;;;;;;2.53;2.33;;;13.60;54.60;;;;;;4999178;28;20481;-80
2022/02/20 06:44:28;;;;;;;2.47;2.30;;;13.60;54.70;;;;;;5000658;28;20473;-80
2022/02/20 06:46:56;;;;;;;2.60;2.40;;;13.70;54.60;;;;;;4999770;28;20473;-80
2022/02/20 06:49:24;;;;;;;2.27;2.17;;;13.70;54.60;;;;;;5001364;28;20445;-81
2022/02/20 06:51:52;;;;;;;2.00;1.90;;;13.70;54.50;;;;;;5000088;28;20445;-80
2022/02/20 06:54:20;;;;;;;2.37;2.17;;;13.60;54.70;;;;;;5000250;28;20460;-81
2022/02/20 06:56:48;;;;;;;2.53;2.43;;;13.60;54.40;;;;;;5000394;28;20433;-80
2022/02/20 06:59:18;;;;;;;3.10;2.80;;;13.70;54.60;;;;;;4999458;28;20464;-80
2022/02/20 07:01:45;;;;;;;2.70;1.90;;;13.70;54.40;;;;;;4999015;28;20464;-80
2022/02/20 07:04:15;;;;;;;2.40;2.30;;;13.60;54.30;;;;;;4998864;28;20464;-80
2022/02/20 07:06:43;;;;;;;2.47;2.27;;;13.60;54.40;;;;;;4999832;28;20438;-81
2022/02/20 07:09:11;;;;;;;2.00;1.90;;;13.60;54.60;;;;;;4999877;28;20449;-79
2022/02/20 07:11:39;;;;;;;2.50;2.20;;;13.60;54.30;;;;;;4999636;28;20465;-80
2022/02/20 07:14:07;;;;;;;2.30;2.20;;;13.60;54.20;;;;;;4998020;28;20457;-80
2022/02/20 07:16:36;;;;;;;2.30;2.20;;;13.60;54.10;;;;;;5000270;28;20489;-80
2022/02/20 07:19:04;;;;;;;2.10;2.00;;;13.60;54.20;;;;;;4999301;28;20434;-80
2022/02/20 07:21:32;;;;;;;2.70;2.50;;;13.60;54.00;;;;;;4999427;28;20477;-80
2022/02/20 07:24:02;;;;;;;2.33;2.20;;;13.60;54.00;;;;;;4999300;28;20441;-80
2022/02/20 07:26:32;;;;;;;2.20;2.10;;;13.60;54.00;;;;;;4999352;28;20457;-80
2022/02/20 07:29:00;;;;;;;2.30;2.20;;;13.60;53.90;;;;;;4998148;28;20531;-80
2022/02/20 07:31:28;;;;;;;1.90;1.80;;;13.60;54.00;;;;;;4998862;28;20457;-80
2022/02/20 07:33:57;;;;;;;2.30;2.20;;;13.60;53.90;;;;;;4999882;28;20438;-80
2022/02/20 07:36:25;;;;;;;2.50;2.20;;;13.60;54.00;;;;;;4999150;28;20465;-80
2022/02/20 07:38:53;;;;;;;2.37;2.27;;;13.60;53.80;;;;;;4999200;28;20484;-80
2022/02/20 07:41:21;;;;;;;2.83;2.50;;;13.60;53.90;;;;;;4995854;28;20496;-82
2022/02/20 07:43:50;;;;;;;2.23;2.10;;;13.50;53.70;;;;;;4995335;28;20453;-82
2022/02/20 07:46:18;;;;;;;1.90;1.80;;;13.50;53.90;;;;;;4994096;28;20471;-82
2022/02/20 07:48:46;;;;;;;2.33;2.10;;;13.50;53.90;;;;;;4993351;28;20561;-82
2022/02/20 07:51:15;;;;;;;2.70;2.00;;;13.50;53.80;;;;;;4993990;28;20529;-81
2022/02/20 07:53:43;;;;;;;2.13;2.03;;;13.40;53.70;;;;;;4994346;28;20564;-82
2022/02/20 07:56:12;;;;;;;2.13;2.03;;;13.40;53.70;;;;;;4993926;28;20461;-82
2022/02/20 07:58:40;;;;;;;3.73;2.43;;;13.40;53.90;;;;;;4994670;28;20445;-81
2022/02/20 08:01:08;;;;;;;2.70;2.50;;;13.40;53.70;;;;;;4994393;28;20433;-81
2022/02/20 08:03:36;;;;;;;2.27;2.00;;;13.40;53.70;;;;;;4994418;28;20434;-81
2022/02/20 08:06:04;;;;;;;1.90;1.80;;;13.40;53.70;;;;;;4993606;28;20477;-80
2022/02/20 08:08:33;;;;;;;2.20;2.10;;;13.40;53.70;;;;;;4993720;28;20465;-81
2022/02/20 08:11:02;;;;;;;1.63;1.53;;;13.40;53.90;;;;;;4994224;28;20445;-81
2022/02/20 08:13:29;;;;;;;2.63;2.43;;;13.40;53.80;;;;;;4993354;28;20465;-81
2022/02/20 08:15:58;;;;;;;2.03;1.90;;;13.30;53.80;;;;;;4994728;28;20461;-81
2022/02/20 08:18:26;;;;;;;2.70;1.80;;;13.40;53.80;;;;;;4993580;28;20437;-82
2022/02/20 08:20:54;;;;;;;2.20;2.00;;;13.40;53.70;;;;;;4994490;28;20441;-81
2022/02/20 08:23:44;;;;;;;1.90;1.80;;;13.30;53.70;;;;;;4992586;28;20552;-82
2022/02/20 08:26:12;;;;;;;2.00;1.90;;;13.30;53.70;;;;;;4994316;28;20532;-81
2022/02/20 08:28:40;;;;;;;2.90;1.90;;;13.30;53.60;;;;;;4993580;28;20481;-82
2022/02/20 08:31:09;;;;;;;1.70;1.67;;;13.30;53.70;;;;;;4994645;28;20469;-81
2022/02/20 08:33:37;;;;;;;2.40;2.20;;;13.30;53.70;;;;;;4993760;28;20504;-81
2022/02/20 08:36:20;;;;;;;2.40;1.80;;;13.30;53.70;;;;;;4993967;28;20456;-82
2022/02/20 08:38:50;;;;;;;3.83;1.93;;;13.30;53.60;;;;;;4993422;28;20457;-81
2022/02/20 08:41:17;;;;;;;1.60;1.50;;;13.40;53.70;;;;;;4996265;28;20471;-81
2022/02/20 08:43:45;;;;;;;4.50;1.80;;;13.30;53.60;;;;;;4997775;28;20437;-81
2022/02/20 08:46:13;;;;;;;2.30;2.17;;;13.30;53.60;;;;;;4996946;28;20460;-81
2022/02/20 08:48:43;;;;;;;1.90;1.80;;;13.30;53.60;;;;;;4997338;28;20504;-81
2022/02/20 08:51:11;;;;;;;1.87;1.77;;;13.30;53.60;;;;;;4997047;28;20456;-82
2022/02/20 08:53:39;;;;;;;1.90;1.80;;;13.40;53.60;;;;;;4997057;28;20491;-81
2022/02/20 08:56:08;;;;;;;1.87;1.77;;;13.30;53.60;;;;;;4998107;28;20472;-82
2022/02/20 08:58:36;;;;;;;1.87;1.77;;;13.30;53.60;;;;;;4998727;28;20445;-81
2022/02/20 09:01:04;;;;;;;1.87;1.77;;;13.40;53.80;;;;;;4997461;28;20444;-82
2022/02/20 09:03:32;;;;;;;2.50;1.93;;;13.40;53.50;;;;;;4997664;28;20445;-82
2022/02/20 09:06:01;;;;;;;2.60;1.90;;;13.40;53.70;;;;;;4996693;28;20497;-82
2022/02/20 09:08:30;;;;;;;1.87;1.77;;;13.40;53.60;;;;;;4997399;28;20523;-82
2022/02/20 09:10:58;;;;;;;2.13;1.80;;;13.40;53.50;;;;;;4996146;28;20512;-81
2022/02/20 09:13:27;;;;;;;1.90;1.80;;;13.40;53.40;;;;;;4996803;28;20468;-82
2022/02/20 09:15:55;;;;;;;2.20;1.97;;;13.40;53.50;;;;;;4997824;28;20492;-81
2022/02/20 09:18:25;;;;;;;2.23;2.03;;;13.40;54.00;;;;;;4996566;28;20473;-82
2022/02/20 09:20:53;;;;;;;1.70;1.60;;;13.40;53.50;;;;;;4997164;28;20434;-81
2022/02/20 09:23:21;;;;;;;1.97;1.87;;;13.40;53.60;;;;;;4996683;28;20498;-82
2022/02/20 09:25:50;;;;;;;2.40;2.20;;;13.50;53.50;;;;;;4996666;28;20469;-82
2022/02/20 09:28:18;;;;;;;1.73;1.63;;;13.50;53.60;;;;;;4995319;28;20511;-82
2022/02/20 09:30:47;;;;;;;1.87;1.67;;;13.50;53.40;;;;;;4996942;28;20453;-81
2022/02/20 09:33:15;;;;;;;1.80;1.47;;;13.50;53.50;;;;;;4996743;28;20453;-81
2022/02/20 09:35:43;;;;;;;1.87;1.77;;;13.50;53.50;;;;;;4996573;28;20504;-82
2022/02/20 09:38:11;;;;;;;1.87;1.77;;;13.50;53.40;;;;;;4996351;28;20469;-82
2022/02/20 09:40:39;;;;;;;1.77;1.70;;;13.50;53.30;;;;;;4996500;28;20444;-81
2022/02/20 09:43:13;;;;;;;1.83;1.70;;;13.50;53.60;;;;;;4996654;28;20438;-82
2022/02/20 09:45:45;;;;;;;1.80;1.70;;;13.60;53.50;;;;;;4995063;28;20481;-82
2022/02/20 09:48:14;;;;;;;2.50;1.80;;;13.60;53.60;;;;;;4989520;28;20461;-82
2022/02/20 09:50:43;;;;;;;2.90;1.60;;;13.60;53.50;;;;;;4997302;28;20441;-80
2022/02/20 09:53:11;;;;;;;1.70;1.60;;;13.60;53.60;;;;;;5004343;28;20433;-81
2022/02/20 09:55:39;;;;;;;1.80;1.70;;;13.60;53.30;;;;;;5004676;28;20465;-80
2022/02/20 09:58:08;;;;;;;1.53;1.50;;;13.70;53.40;;;;;;4999180;28;20820;-82
2022/02/20 10:00:36;;;;;;;1.93;1.70;;;13.70;53.40;;;;;;4997331;28;20473;-82
2022/02/20 10:03:26;;;;;;;1.60;1.50;;;13.70;53.90;;;;;;4997610;28;20461;-82
2022/02/20 10:05:54;;;;;;;1.90;1.80;;;13.80;53.40;;;;;;4996929;28;20458;-81
2022/02/20 10:08:22;;;;;;;2.10;2.00;;;13.80;53.40;;;;;;4997662;28;20434;-82
2022/02/20 10:10:50;;;;;;;2.00;1.90;;;13.90;53.50;;;;;;4997844;28;20496;-86
2022/02/20 10:13:24;;;;;;;1.77;1.67;;;13.90;53.40;;;;;;4996950;28;20433;-82
2022/02/20 10:15:54;;;;;;;2.30;1.70;;;13.90;54.00;;;;;;4997089;28;20960;-81
2022/02/20 10:18:27;;;;;;;1.60;1.50;;;13.90;53.20;;;;;;4996248;28;20442;-82
2022/02/20 10:21:00;;;;;;;2.03;1.60;;;14.00;53.40;;;;;;4983925;28;20473;-82
2022/02/20 10:23:30;;;;;;;2.07;1.60;;;14.10;53.30;;;;;;4990886;28;20433;-82
2022/02/20 10:26:10;;;;;;;2.30;1.57;;;14.10;53.40;;;;;;4996018;28;20469;-82
2022/02/20 10:28:38;;;;;;;1.53;1.43;;;14.10;53.20;;;;;;5007659;28;20437;-80
2022/02/20 10:31:05;;;;;;;1.83;1.73;;;14.10;53.20;;;;;;5006966;28;20521;-81
2022/02/20 10:33:35;;;;;;;2.47;1.40;;;14.20;53.20;;;;;;5007025;28;20494;-80
2022/02/20 10:36:03;;;;;;;1.30;1.20;;;14.30;53.20;;;;;;5004795;28;20469;-80
2022/02/20 10:38:36;;;;;;;1.63;1.53;;;14.30;53.20;;;;;;5004072;28;20539;-80
2022/02/20 10:41:04;;;;;;;1.63;1.53;;;14.30;53.10;;;;;;5004812;28;20449;-80
2022/02/20 10:43:33;;;;;;;1.30;1.20;;;14.40;53.10;;;;;;5004644;28;20449;-80
2022/02/20 10:46:08;;;;;;;3.17;1.80;;;14.40;53.10;;;;;;5005517;28;20461;-80
2022/02/20 10:48:42;;;;;;;1.70;1.60;;;14.50;53.10;;;;;;5003399;28;20458;-82
2022/02/20 10:51:10;;;;;;;1.00;1.00;;;14.60;53.00;;;;;;4995967;28;20414;-82
2022/02/20 10:53:38;;;;;;;1.30;1.10;;;14.70;52.90;;;;;;5000343;28;20491;-80
2022/02/20 10:56:06;;;;;;;1.50;1.40;;;14.70;52.70;;;;;;4988949;28;20533;-82
2022/02/20 10:58:35;;;;;;;1.33;1.23;;;14.70;52.80;;;;;;4978003;28;20446;-82
2022/02/20 11:01:04;;;;;;;1.67;1.57;;;14.80;52.80;;;;;;4983680;28;20431;-79
2022/02/20 11:03:33;;;;;;;1.30;1.17;;;14.90;52.70;;;;;;4981979;28;20853;-81
2022/02/20 11:06:03;;;;;;;1.43;1.33;;;15.00;52.60;;;;;;4976472;28;20450;-81
2022/02/20 11:08:31;;;;;;;1.67;1.40;;;15.10;52.50;;;;;;4977147;28;20439;-81
2022/02/20 11:11:36;;;;;;;1.20;1.10;;;15.10;52.40;;;;;;4983885;28;20473;-81
2022/02/20 11:13:46;;;;;;;1.20;1.20;;;15.20;52.30;;;;;;5001712;28;20441;-79
2022/02/20 11:16:14;;;;;;;1.33;1.20;;;15.20;52.30;;;;;;5000924;28;20452;-81
2022/02/20 11:18:42;;;;;;;1.70;1.60;;;15.30;52.20;;;;;;4995388;28;20508;-81
2022/02/20 11:21:12;;;;;;;1.10;1.00;;;15.40;52.00;;;;;;4995969;28;20429;-80
2022/02/20 11:23:40;;;;;;;1.40;1.30;;;15.50;51.80;;;;;;4998608;28;20493;-79
2022/02/20 11:26:08;;;;;;;1.37;1.27;;;15.50;51.90;;;;;;5002236;28;20476;-79
2022/02/20 11:28:35;;;;;;;1.60;1.50;;;15.60;51.90;;;;;;5001262;28;20465;-81
2022/02/20 11:31:03;;;;;;;17.23;5.20;;;15.60;51.80;;;;;;5000320;28;20469;-84
2022/02/20 11:33:33;;;;;;;22.30;7.60;;;16.20;61.20;;;;;;4997194;28;20449;-85
2022/02/20 11:36:03;;;;;;;25.57;8.10;;;17.00;61.90;;;;;;4995966;28;20480;-84
2022/02/20 11:38:37;;;;;;;23.87;7.00;;;17.50;61.80;;;;;;5000770;28;20453;-83
2022/02/20 11:41:11;;;;;;;19.83;7.33;;;18.00;61.10;;;;;;4989784;28;20453;-82
2022/02/20 11:43:44;;;;;;;25.53;6.60;;;18.30;61.60;;;;;;5000286;28;20475;-82
2022/02/20 11:46:14;;;;;;;17.60;6.77;;;18.60;60.70;;;;;;4995485;28;20469;-82
2022/02/20 11:49:26;;;;;;;22.27;7.30;;;18.80;61.20;;;;;;4995589;28;20421;-82
2022/02/20 11:52:02;;;;;;;72.73;8.47;;;18.70;61.10;;;;;;5001363;28;20413;-79
2022/02/20 11:54:32;;;;;;;59.07;7.30;;;18.60;61.70;;;;;;4996787;28;20452;-82
2022/02/20 11:57:23;;;;;;;69.00;8.30;;;18.70;61.20;;;;;;4995346;28;20467;-81
2022/02/20 12:00:13;;;;;;;34.80;7.20;;;18.60;61.50;;;;;;4980534;28;21084;-81
2022/02/20 12:03:07;;;;;;;48.17;6.93;;;18.40;62.20;;;;;;4995282;28;20437;-82
2022/02/20 12:05:36;;;;;;;49.10;6.77;;;18.40;63.20;;;;;;4997098;28;20885;-82
2022/02/20 12:08:07;;;;;;;34.50;7.23;;;18.30;63.50;;;;;;4995701;28;20868;-82
2022/02/20 12:10:39;;;;;;;47.97;8.07;;;18.30;64.20;;;;;;4995546;28;20461;-82
2022/02/20 12:13:30;;;;;;;51.47;7.00;;;18.30;64.50;;;;;;4998090;28;20476;-81
2022/02/20 12:15:58;;;;;;;33.53;6.53;;;17.90;65.70;;;;;;4998915;28;20523;-81
2022/02/20 12:18:27;;;;;;;45.30;6.47;;;18.10;65.80;;;;;;4999563;28;20453;-81
2022/02/20 12:21:14;;;;;;;43.10;6.00;;;18.00;65.90;;;;;;5000088;28;20437;-81
2022/02/20 12:23:49;;;;;;;25.17;5.47;;;17.80;67.10;;;;;;4998720;28;20883;-80
2022/02/20 12:27:01;;;;;;;18.70;4.60;;;17.80;67.60;;;;;;4999788;28;20501;-85
2022/02/20 12:29:36;;;;;;;12.10;4.80;;;18.00;67.90;;;;;;5000211;28;20452;-82
2022/02/20 12:32:10;;;;;;;23.73;5.20;;;18.50;64.80;;;;;;5000283;28;20488;-84
2022/02/20 12:35:04;;;;;;;18.90;5.13;;;18.60;63.60;;;;;;5000170;28;20461;-82
2022/02/20 12:37:32;;;;;;;15.63;5.40;;;18.70;63.60;;;;;;4999711;28;20417;-81
2022/02/20 12:40:03;;;;;;;23.07;5.33;;;18.70;64.20;;;;;;4999607;28;20432;-81
2022/02/20 12:42:31;;;;;;;25.37;6.47;;;18.50;65.10;;;;;;4999710;28;20437;-82
2022/02/20 12:45:09;;;;;;;20.70;4.40;;;18.40;65.80;;;;;;4999532;28;20468;-83
2022/02/20 12:47:38;;;;;;;25.17;4.60;;;18.30;67.00;;;;;;5000713;28;20452;-81
2022/02/20 12:50:12;;;;;;;25.87;5.10;;;18.20;67.90;;;;;;5010568;28;20488;-80
2022/02/20 12:52:41;;;;;;;35.70;5.50;;;17.80;69.30;;;;;;5003179;28;20441;-82
2022/02/20 12:55:12;;;;;;;35.30;4.80;;;18.00;69.30;;;;;;4999970;28;20551;-80
2022/02/20 12:57:40;;;;;;;27.70;4.93;;;17.90;69.60;;;;;;5005502;28;20517;-78